sensor_id;sensor_type;location;lat;lon;timestamp;P1;durP1;ratioP1;P2;durP2;ratioP2
68377;SDS011;55322;48.146;11.516;2023-10-31T00:01:45;3.30;;;0.50;;
68377;SDS011;55322;48.146;11.516;2023-10-31T00:04:11;3.65;;;0.60;;
68377;SDS011;55322;48.146;11.516;2023-10-31T00:06:36;2.73;;;0.40;;
68377;SDS011;55322;48.146;11.516;2023-10-31T00:09:01;3.20;;;0.43;;
68377;SDS011;55322;48.146;11.516;2023-10-31T00:11:27;3.80;;;0.40;;
68377;SDS011;55322;48.146;11.516;2023-10-31T00:13:52;4.37;;;0.40;;
68377;SDS011;55322;48.146;11.516;2023-10-31T00:16:17;2.60;;;0.30;;
68377;SDS011;55322;48.146;11.516;2023-10-31T00:18:43;2.90;;;0.30;;
68377;SDS011;55322;48.146;11.516;2023-10-31T00:21:08;2.17;;;0.30;;
68377;SDS011;55322;48.146;11.516;2023-10-31T00:23:33;2.23;;;0.30;;
68377;SDS011;55322;48.146;11.516;2023-10-31T00:25:59;3.10;;;0.20;;
68377;SDS011;55322;48.146;11.516;2023-10-31T00:28:24;2.07;;;0.30;;
68377;SDS011;55322;48.146;11.516;2023-10-31T00:30:49;1.77;;;0.30;;
68377;SDS011;55322;48.146;11.516;2023-10-31T00:33:15;216.63;;;15.43;;
68377;SDS011;55322;48.146;11.516;2023-10-31T00:35:40;45.40;;;13.13;;
68377;SDS011;55322;48.146;11.516;2023-10-31T00:38:05;74.23;;;15.17;;
68377;SDS011;55322;48.146;11.516;2023-10-31T00:40:31;100.03;;;40.27;;
68377;SDS011;55322;48.146;11.516;2023-10-31T00:42:56;53.17;;;22.87;;
68377;SDS011;55322;48.146;11.516;2023-10-31T00:45:23;26.67;;;14.77;;
68377;SDS011;55322;48.146;11.516;2023-10-31T00:47:48;34.50;;;31.47;;
68377;SDS011;55322;48.146;11.516;2023-10-31T00:50:14;4.10;;;1.80;;
68377;SDS011;55322;48.146;11.516;2023-10-31T00:52:39;4.10;;;1.70;;
68377;SDS011;55322;48.146;11.516;2023-10-31T00:55:05;3.80;;;1.60;;
68377;SDS011;55322;48.146;11.516;2023-10-31T00:57:30;3.70;;;1.50;;
68377;SDS011;55322;48.146;11.516;2023-10-31T00:59:56;7.10;;;5.10;;
68377;SDS011;55322;48.146;11.516;2023-10-31T01:02:21;4.77;;;2.10;;
68377;SDS011;55322;48.146;11.516;2023-10-31T01:04:46;4.40;;;1.73;;
68377;SDS011;55322;48.146;11.516;2023-10-31T01:07:11;4.40;;;2.10;;
68377;SDS011;55322;48.146;11.516;2023-10-31T01:09:39;4.45;;;1.95;;
68377;SDS011;55322;48.146;11.516;2023-10-31T01:12:05;4.23;;;1.90;;
68377;SDS011;55322;48.146;11.516;2023-10-31T01:14:30;4.10;;;1.70;;
68377;SDS011;55322;48.146;11.516;2023-10-31T01:16:56;4.00;;;1.80;;
68377;SDS011;55322;48.146;11.516;2023-10-31T01:19:21;3.90;;;1.63;;
68377;SDS011;55322;48.146;11.516;2023-10-31T01:21:46;3.60;;;1.50;;
68377;SDS011;55322;48.146;11.516;2023-10-31T01:24:12;3.93;;;1.70;;
68377;SDS011;55322;48.146;11.516;2023-10-31T01:26:37;4.10;;;1.90;;
68377;SDS011;55322;48.146;11.516;2023-10-31T01:29:02;4.30;;;2.20;;
68377;SDS011;55322;48.146;11.516;2023-10-31T01:31:28;4.33;;;2.10;;
68377;SDS011;55322;48.146;11.516;2023-10-31T01:33:53;4.28;;;1.80;;
68377;SDS011;55322;48.146;11.516;2023-10-31T01:36:19;4.77;;;2.17;;
68377;SDS011;55322;48.146;11.516;2023-10-31T01:38:44;4.20;;;2.07;;
68377;SDS011;55322;48.146;11.516;2023-10-31T01:41:11;3.85;;;1.73;;
68377;SDS011;55322;48.146;11.516;2023-10-31T01:43:37;4.20;;;2.10;;
68377;SDS011;55322;48.146;11.516;2023-10-31T01:46:03;4.40;;;2.10;;
68377;SDS011;55322;48.146;11.516;2023-10-31T01:48:30;5.78;;;2.40;;
68377;SDS011;55322;48.146;11.516;2023-10-31T01:50:57;4.10;;;2.10;;
68377;SDS011;55322;48.146;11.516;2023-10-31T01:53:24;4.60;;;2.20;;
68377;SDS011;55322;48.146;11.516;2023-10-31T01:55:51;4.32;;;2.50;;
68377;SDS011;55322;48.146;11.516;2023-10-31T01:58:18;4.22;;;2.28;;
68377;SDS011;55322;48.146;11.516;2023-10-31T02:00:48;5.45;;;2.60;;
68377;SDS011;55322;48.146;11.516;2023-10-31T02:03:15;4.50;;;2.57;;
68377;SDS011;55322;48.146;11.516;2023-10-31T02:05:41;4.60;;;2.50;;
68377;SDS011;55322;48.146;11.516;2023-10-31T02:08:07;4.40;;;2.50;;
68377;SDS011;55322;48.146;11.516;2023-10-31T02:10:35;5.85;;;5.22;;
68377;SDS011;55322;48.146;11.516;2023-10-31T02:13:13;101.33;;;96.27;;
68377;SDS011;55322;48.146;11.516;2023-10-31T02:15:39;1999.90;;;999.90;;
68377;SDS011;55322;48.146;11.516;2023-10-31T02:18:05;1999.90;;;999.90;;
68377;SDS011;55322;48.146;11.516;2023-10-31T02:20:31;18.60;;;17.38;;
68377;SDS011;55322;48.146;11.516;2023-10-31T02:22:57;5.43;;;3.20;;
68377;SDS011;55322;48.146;11.516;2023-10-31T02:25:22;89.83;;;85.47;;
68377;SDS011;55322;48.146;11.516;2023-10-31T02:27:48;1999.90;;;999.90;;
68377;SDS011;55322;48.146;11.516;2023-10-31T02:30:13;1999.90;;;999.90;;
68377;SDS011;55322;48.146;11.516;2023-10-31T02:32:39;1999.90;;;999.90;;
68377;SDS011;55322;48.146;11.516;2023-10-31T02:35:05;1999.90;;;999.90;;
68377;SDS011;55322;48.146;11.516;2023-10-31T02:37:32;1999.90;;;999.90;;
68377;SDS011;55322;48.146;11.516;2023-10-31T02:39:57;1999.90;;;999.90;;
68377;SDS011;55322;48.146;11.516;2023-10-31T02:42:23;1999.90;;;999.90;;
68377;SDS011;55322;48.146;11.516;2023-10-31T02:44:49;1999.90;;;999.90;;
68377;SDS011;55322;48.146;11.516;2023-10-31T02:47:14;1999.90;;;999.90;;
68377;SDS011;55322;48.146;11.516;2023-10-31T02:49:40;1999.90;;;999.90;;
68377;SDS011;55322;48.146;11.516;2023-10-31T02:52:05;1999.90;;;999.90;;
68377;SDS011;55322;48.146;11.516;2023-10-31T02:54:31;1999.90;;;999.90;;
68377;SDS011;55322;48.146;11.516;2023-10-31T02:56:56;1999.90;;;999.90;;
68377;SDS011;55322;48.146;11.516;2023-10-31T02:59:22;1999.90;;;999.90;;
68377;SDS011;55322;48.146;11.516;2023-10-31T03:01:47;1999.90;;;999.90;;
68377;SDS011;55322;48.146;11.516;2023-10-31T03:04:12;1999.90;;;999.90;;
68377;SDS011;55322;48.146;11.516;2023-10-31T03:06:38;1999.90;;;999.90;;
68377;SDS011;55322;48.146;11.516;2023-10-31T03:09:03;1999.90;;;999.90;;
68377;SDS011;55322;48.146;11.516;2023-10-31T03:11:28;1999.90;;;999.90;;
68377;SDS011;55322;48.146;11.516;2023-10-31T03:13:54;1999.90;;;999.90;;
68377;SDS011;55322;48.146;11.516;2023-10-31T03:16:21;1999.90;;;999.90;;
68377;SDS011;55322;48.146;11.516;2023-10-31T03:18:47;1999.90;;;999.90;;
68377;SDS011;55322;48.146;11.516;2023-10-31T03:21:12;1999.90;;;999.90;;
68377;SDS011;55322;48.146;11.516;2023-10-31T03:23:37;1999.90;;;999.90;;
68377;SDS011;55322;48.146;11.516;2023-10-31T03:26:03;1999.90;;;999.90;;
68377;SDS011;55322;48.146;11.516;2023-10-31T03:28:28;1999.90;;;999.90;;
68377;SDS011;55322;48.146;11.516;2023-10-31T03:30:54;1999.90;;;999.90;;
68377;SDS011;55322;48.146;11.516;2023-10-31T03:33:19;1999.90;;;999.90;;
68377;SDS011;55322;48.146;11.516;2023-10-31T03:35:45;1999.90;;;999.90;;
68377;SDS011;55322;48.146;11.516;2023-10-31T03:38:25;1999.90;;;999.90;;
68377;SDS011;55322;48.146;11.516;2023-10-31T03:40:51;1999.90;;;999.90;;
68377;SDS011;55322;48.146;11.516;2023-10-31T03:43:16;511.83;;;260.83;;
68377;SDS011;55322;48.146;11.516;2023-10-31T03:45:41;4.70;;;3.10;;
68377;SDS011;55322;48.146;11.516;2023-10-31T03:48:07;42.07;;;38.17;;
68377;SDS011;55322;48.146;11.516;2023-10-31T03:50:32;4.93;;;3.60;;
68377;SDS011;55322;48.146;11.516;2023-10-31T03:52:57;1999.90;;;999.90;;
68377;SDS011;55322;48.146;11.516;2023-10-31T03:55:23;1999.90;;;999.90;;
68377;SDS011;55322;48.146;11.516;2023-10-31T03:57:48;1999.90;;;999.90;;
68377;SDS011;55322;48.146;11.516;2023-10-31T04:00:14;1999.90;;;999.90;;
68377;SDS011;55322;48.146;11.516;2023-10-31T04:02:40;1999.90;;;999.90;;
68377;SDS011;55322;48.146;11.516;2023-10-31T04:05:06;1999.90;;;999.90;;
68377;SDS011;55322;48.146;11.516;2023-10-31T04:07:32;1999.90;;;999.90;;
68377;SDS011;55322;48.146;11.516;2023-10-31T04:09:57;1999.90;;;999.90;;
68377;SDS011;55322;48.146;11.516;2023-10-31T04:12:22;1999.90;;;999.90;;
68377;SDS011;55322;48.146;11.516;2023-10-31T04:14:48;1999.90;;;999.90;;
68377;SDS011;55322;48.146;11.516;2023-10-31T04:17:13;1999.90;;;999.90;;
68377;SDS011;55322;48.146;11.516;2023-10-31T04:19:38;1999.90;;;999.90;;
68377;SDS011;55322;48.146;11.516;2023-10-31T04:22:04;1999.90;;;999.90;;
68377;SDS011;55322;48.146;11.516;2023-10-31T04:24:29;1999.90;;;999.90;;
68377;SDS011;55322;48.146;11.516;2023-10-31T04:26:55;1999.90;;;999.90;;
68377;SDS011;55322;48.146;11.516;2023-10-31T04:29:20;1999.90;;;999.90;;
68377;SDS011;55322;48.146;11.516;2023-10-31T04:31:45;1999.90;;;999.90;;
68377;SDS011;55322;48.146;11.516;2023-10-31T04:34:11;1999.90;;;999.90;;
68377;SDS011;55322;48.146;11.516;2023-10-31T04:36:36;1999.90;;;999.90;;
68377;SDS011;55322;48.146;11.516;2023-10-31T04:39:02;1999.90;;;999.90;;
68377;SDS011;55322;48.146;11.516;2023-10-31T04:41:27;1999.90;;;999.90;;
68377;SDS011;55322;48.146;11.516;2023-10-31T04:43:53;1999.90;;;999.90;;
68377;SDS011;55322;48.146;11.516;2023-10-31T04:46:18;1999.90;;;999.90;;
68377;SDS011;55322;48.146;11.516;2023-10-31T04:48:44;1999.90;;;999.90;;
68377;SDS011;55322;48.146;11.516;2023-10-31T04:51:09;1999.90;;;999.90;;
68377;SDS011;55322;48.146;11.516;2023-10-31T04:53:34;1999.90;;;999.90;;
68377;SDS011;55322;48.146;11.516;2023-10-31T04:56:00;1999.90;;;999.90;;
68377;SDS011;55322;48.146;11.516;2023-10-31T04:58:25;1999.90;;;999.90;;
68377;SDS011;55322;48.146;11.516;2023-10-31T05:00:51;1999.90;;;999.90;;
68377;SDS011;55322;48.146;11.516;2023-10-31T05:03:16;1999.90;;;999.90;;
68377;SDS011;55322;48.146;11.516;2023-10-31T05:05:42;1999.90;;;999.90;;
68377;SDS011;55322;48.146;11.516;2023-10-31T05:08:08;1999.90;;;999.90;;
68377;SDS011;55322;48.146;11.516;2023-10-31T05:10:34;1999.90;;;999.90;;
68377;SDS011;55322;48.146;11.516;2023-10-31T05:13:00;1999.90;;;999.90;;
68377;SDS011;55322;48.146;11.516;2023-10-31T05:15:27;1999.90;;;999.90;;
68377;SDS011;55322;48.146;11.516;2023-10-31T05:17:53;1999.90;;;999.90;;
68377;SDS011;55322;48.146;11.516;2023-10-31T05:20:18;1999.90;;;999.90;;
68377;SDS011;55322;48.146;11.516;2023-10-31T05:22:43;1999.90;;;999.90;;
68377;SDS011;55322;48.146;11.516;2023-10-31T05:25:09;1999.90;;;999.90;;
68377;SDS011;55322;48.146;11.516;2023-10-31T05:27:34;1999.90;;;999.90;;
68377;SDS011;55322;48.146;11.516;2023-10-31T05:29:59;1999.90;;;999.90;;
68377;SDS011;55322;48.146;11.516;2023-10-31T05:32:25;1999.90;;;999.90;;
68377;SDS011;55322;48.146;11.516;2023-10-31T05:34:50;1999.90;;;999.90;;
68377;SDS011;55322;48.146;11.516;2023-10-31T05:37:15;1999.90;;;999.90;;
68377;SDS011;55322;48.146;11.516;2023-10-31T05:39:41;1999.90;;;999.90;;
68377;SDS011;55322;48.146;11.516;2023-10-31T05:42:06;1999.90;;;999.90;;
68377;SDS011;55322;48.146;11.516;2023-10-31T05:44:32;1999.90;;;999.90;;
68377;SDS011;55322;48.146;11.516;2023-10-31T05:46:57;1999.90;;;999.90;;
68377;SDS011;55322;48.146;11.516;2023-10-31T05:49:22;1999.90;;;999.90;;
68377;SDS011;55322;48.146;11.516;2023-10-31T05:51:51;1999.90;;;999.90;;
68377;SDS011;55322;48.146;11.516;2023-10-31T05:54:17;1999.90;;;999.90;;
68377;SDS011;55322;48.146;11.516;2023-10-31T05:56:42;1999.90;;;999.90;;
68377;SDS011;55322;48.146;11.516;2023-10-31T05:59:09;1999.90;;;999.90;;
68377;SDS011;55322;48.146;11.516;2023-10-31T06:01:35;1999.90;;;999.90;;
68377;SDS011;55322;48.146;11.516;2023-10-31T06:04:00;1999.90;;;999.90;;
68377;SDS011;55322;48.146;11.516;2023-10-31T06:06:25;1999.90;;;999.90;;
68377;SDS011;55322;48.146;11.516;2023-10-31T06:08:51;1999.90;;;999.90;;
68377;SDS011;55322;48.146;11.516;2023-10-31T06:11:16;1999.90;;;999.90;;
68377;SDS011;55322;48.146;11.516;2023-10-31T06:13:42;1999.90;;;999.90;;
68377;SDS011;55322;48.146;11.516;2023-10-31T06:16:07;1999.90;;;999.90;;
68377;SDS011;55322;48.146;11.516;2023-10-31T06:18:33;1999.90;;;999.90;;
68377;SDS011;55322;48.146;11.516;2023-10-31T06:20:58;1999.90;;;999.90;;
68377;SDS011;55322;48.146;11.516;2023-10-31T06:23:24;1999.90;;;999.90;;
68377;SDS011;55322;48.146;11.516;2023-10-31T06:25:49;1508.85;;;758.20;;
68377;SDS011;55322;48.146;11.516;2023-10-31T06:28:15;1999.90;;;999.90;;
68377;SDS011;55322;48.146;11.516;2023-10-31T06:30:40;1999.90;;;999.90;;
68377;SDS011;55322;48.146;11.516;2023-10-31T06:33:06;1999.90;;;999.90;;
68377;SDS011;55322;48.146;11.516;2023-10-31T06:35:33;1999.90;;;999.90;;
68377;SDS011;55322;48.146;11.516;2023-10-31T06:38:00;1999.90;;;999.90;;
68377;SDS011;55322;48.146;11.516;2023-10-31T06:40:26;1999.90;;;999.90;;
68377;SDS011;55322;48.146;11.516;2023-10-31T06:42:51;1999.90;;;999.90;;
68377;SDS011;55322;48.146;11.516;2023-10-31T06:45:17;1999.90;;;999.90;;
68377;SDS011;55322;48.146;11.516;2023-10-31T06:47:42;1999.90;;;999.90;;
68377;SDS011;55322;48.146;11.516;2023-10-31T06:50:08;1999.90;;;999.90;;
68377;SDS011;55322;48.146;11.516;2023-10-31T06:52:34;104.80;;;99.60;;
68377;SDS011;55322;48.146;11.516;2023-10-31T06:54:59;1999.90;;;999.90;;
68377;SDS011;55322;48.146;11.516;2023-10-31T06:57:24;1999.90;;;999.90;;
68377;SDS011;55322;48.146;11.516;2023-10-31T06:59:51;1999.90;;;999.90;;
68377;SDS011;55322;48.146;11.516;2023-10-31T07:02:16;1999.90;;;999.90;;
68377;SDS011;55322;48.146;11.516;2023-10-31T07:04:42;1999.90;;;999.90;;
68377;SDS011;55322;48.146;11.516;2023-10-31T07:07:07;1999.90;;;999.90;;
68377;SDS011;55322;48.146;11.516;2023-10-31T07:09:33;1999.90;;;999.90;;
68377;SDS011;55322;48.146;11.516;2023-10-31T07:11:58;1999.90;;;999.90;;
68377;SDS011;55322;48.146;11.516;2023-10-31T07:14:23;35.70;;;33.40;;
68377;SDS011;55322;48.146;11.516;2023-10-31T07:16:49;5.78;;;0.60;;
68377;SDS011;55322;48.146;11.516;2023-10-31T07:19:14;1999.90;;;999.90;;
68377;SDS011;55322;48.146;11.516;2023-10-31T07:21:39;2.80;;;0.60;;
68377;SDS011;55322;48.146;11.516;2023-10-31T07:24:05;4.07;;;0.53;;
68377;SDS011;55322;48.146;11.516;2023-10-31T07:26:33;3.95;;;0.50;;
68377;SDS011;55322;48.146;11.516;2023-10-31T07:28:59;3.97;;;0.60;;
68377;SDS011;55322;48.146;11.516;2023-10-31T07:31:24;4.67;;;0.40;;
68377;SDS011;55322;48.146;11.516;2023-10-31T07:33:49;5.70;;;0.40;;
68377;SDS011;55322;48.146;11.516;2023-10-31T07:36:15;4.35;;;0.60;;
68377;SDS011;55322;48.146;11.516;2023-10-31T07:38:40;4.57;;;0.50;;
68377;SDS011;55322;48.146;11.516;2023-10-31T07:41:05;6.30;;;0.70;;
68377;SDS011;55322;48.146;11.516;2023-10-31T07:43:31;3.33;;;0.50;;
68377;SDS011;55322;48.146;11.516;2023-10-31T07:45:56;5.70;;;0.60;;
68377;SDS011;55322;48.146;11.516;2023-10-31T07:48:22;3.53;;;0.50;;
68377;SDS011;55322;48.146;11.516;2023-10-31T07:50:47;4.20;;;0.60;;
68377;SDS011;55322;48.146;11.516;2023-10-31T07:53:12;4.20;;;0.57;;
68377;SDS011;55322;48.146;11.516;2023-10-31T07:55:38;4.28;;;0.40;;
68377;SDS011;55322;48.146;11.516;2023-10-31T07:58:03;3.10;;;0.40;;
68377;SDS011;55322;48.146;11.516;2023-10-31T08:00:28;3.30;;;0.50;;
68377;SDS011;55322;48.146;11.516;2023-10-31T08:02:54;3.77;;;0.47;;
68377;SDS011;55322;48.146;11.516;2023-10-31T08:05:19;5.47;;;0.40;;
68377;SDS011;55322;48.146;11.516;2023-10-31T08:07:44;4.60;;;0.50;;
68377;SDS011;55322;48.146;11.516;2023-10-31T08:10:10;3.53;;;0.50;;
68377;SDS011;55322;48.146;11.516;2023-10-31T08:12:35;3.45;;;0.50;;
68377;SDS011;55322;48.146;11.516;2023-10-31T08:15:01;4.67;;;0.50;;
68377;SDS011;55322;48.146;11.516;2023-10-31T08:17:27;4.15;;;0.60;;
68377;SDS011;55322;48.146;11.516;2023-10-31T08:19:52;3.80;;;0.60;;
68377;SDS011;55322;48.146;11.516;2023-10-31T08:22:17;4.80;;;0.40;;
68377;SDS011;55322;48.146;11.516;2023-10-31T08:24:43;4.47;;;0.40;;
68377;SDS011;55322;48.146;11.516;2023-10-31T08:27:09;3.13;;;0.40;;
68377;SDS011;55322;48.146;11.516;2023-10-31T08:29:35;5.85;;;0.70;;
68377;SDS011;55322;48.146;11.516;2023-10-31T08:32:00;5.23;;;0.60;;
68377;SDS011;55322;48.146;11.516;2023-10-31T08:34:26;4.17;;;0.40;;
68377;SDS011;55322;48.146;11.516;2023-10-31T08:36:51;5.67;;;0.50;;
68377;SDS011;55322;48.146;11.516;2023-10-31T08:39:17;3.20;;;0.47;;
68377;SDS011;55322;48.146;11.516;2023-10-31T08:41:52;3.87;;;0.40;;
68377;SDS011;55322;48.146;11.516;2023-10-31T08:44:24;3.60;;;0.40;;
68377;SDS011;55322;48.146;11.516;2023-10-31T08:46:50;4.45;;;0.50;;
68377;SDS011;55322;48.146;11.516;2023-10-31T08:49:15;4.77;;;0.60;;
68377;SDS011;55322;48.146;11.516;2023-10-31T08:51:41;3.83;;;0.45;;
68377;SDS011;55322;48.146;11.516;2023-10-31T08:54:07;4.30;;;0.40;;
68377;SDS011;55322;48.146;11.516;2023-10-31T08:56:33;3.63;;;0.50;;
68377;SDS011;55322;48.146;11.516;2023-10-31T08:58:59;3.85;;;0.40;;
68377;SDS011;55322;48.146;11.516;2023-10-31T09:01:24;6.00;;;0.50;;
68377;SDS011;55322;48.146;11.516;2023-10-31T09:03:50;4.07;;;0.40;;
68377;SDS011;55322;48.146;11.516;2023-10-31T09:06:15;3.23;;;0.40;;
68377;SDS011;55322;48.146;11.516;2023-10-31T09:08:40;3.37;;;0.60;;
68377;SDS011;55322;48.146;11.516;2023-10-31T09:11:06;5.00;;;0.50;;
68377;SDS011;55322;48.146;11.516;2023-10-31T09:13:31;3.67;;;0.60;;
68377;SDS011;55322;48.146;11.516;2023-10-31T09:16:00;6.90;;;0.80;;
68377;SDS011;55322;48.146;11.516;2023-10-31T09:18:26;6.35;;;0.80;;
68377;SDS011;55322;48.146;11.516;2023-10-31T09:20:52;4.25;;;0.40;;
68377;SDS011;55322;48.146;11.516;2023-10-31T09:23:17;5.60;;;0.57;;
68377;SDS011;55322;48.146;11.516;2023-10-31T09:25:43;4.13;;;0.50;;
68377;SDS011;55322;48.146;11.516;2023-10-31T09:28:09;5.33;;;0.50;;
68377;SDS011;55322;48.146;11.516;2023-10-31T09:30:34;4.47;;;0.60;;
68377;SDS011;55322;48.146;11.516;2023-10-31T09:32:59;5.35;;;0.60;;
68377;SDS011;55322;48.146;11.516;2023-10-31T09:35:25;6.53;;;0.60;;
68377;SDS011;55322;48.146;11.516;2023-10-31T09:37:51;6.30;;;0.70;;
68377;SDS011;55322;48.146;11.516;2023-10-31T09:40:16;4.53;;;0.77;;
68377;SDS011;55322;48.146;11.516;2023-10-31T09:42:43;4.10;;;0.50;;
68377;SDS011;55322;48.146;11.516;2023-10-31T09:45:10;3.83;;;0.50;;
68377;SDS011;55322;48.146;11.516;2023-10-31T09:47:35;4.03;;;0.57;;
68377;SDS011;55322;48.146;11.516;2023-10-31T09:50:01;3.83;;;0.50;;
68377;SDS011;55322;48.146;11.516;2023-10-31T09:52:26;5.57;;;0.70;;
68377;SDS011;55322;48.146;11.516;2023-10-31T09:54:52;5.13;;;0.50;;
68377;SDS011;55322;48.146;11.516;2023-10-31T09:57:18;3.90;;;0.60;;
68377;SDS011;55322;48.146;11.516;2023-10-31T09:59:44;4.53;;;0.77;;
68377;SDS011;55322;48.146;11.516;2023-10-31T10:02:09;5.53;;;0.70;;
68377;SDS011;55322;48.146;11.516;2023-10-31T10:04:35;5.00;;;0.50;;
68377;SDS011;55322;48.146;11.516;2023-10-31T10:07:02;5.20;;;0.70;;
68377;SDS011;55322;48.146;11.516;2023-10-31T10:09:28;4.45;;;0.50;;
68377;SDS011;55322;48.146;11.516;2023-10-31T10:11:56;4.45;;;0.40;;
68377;SDS011;55322;48.146;11.516;2023-10-31T10:14:24;4.17;;;0.40;;
68377;SDS011;55322;48.146;11.516;2023-10-31T10:16:51;4.22;;;0.68;;
68377;SDS011;55322;48.146;11.516;2023-10-31T10:19:17;5.33;;;0.70;;
68377;SDS011;55322;48.146;11.516;2023-10-31T10:24:30;5.25;;;0.70;;
68377;SDS011;55322;48.146;11.516;2023-10-31T10:26:56;3.90;;;0.40;;
68377;SDS011;55322;48.146;11.516;2023-10-31T10:29:21;4.93;;;0.60;;
68377;SDS011;55322;48.146;11.516;2023-10-31T10:31:47;3.45;;;0.50;;
68377;SDS011;55322;48.146;11.516;2023-10-31T10:34:15;6.50;;;0.60;;
68377;SDS011;55322;48.146;11.516;2023-10-31T10:36:41;6.50;;;0.70;;
68377;SDS011;55322;48.146;11.516;2023-10-31T10:39:11;4.65;;;0.45;;
68377;SDS011;55322;48.146;11.516;2023-10-31T10:41:36;5.00;;;0.70;;
68377;SDS011;55322;48.146;11.516;2023-10-31T10:44:05;4.85;;;0.55;;
68377;SDS011;55322;48.146;11.516;2023-10-31T10:46:35;6.80;;;0.70;;
68377;SDS011;55322;48.146;11.516;2023-10-31T10:49:03;4.95;;;0.68;;
68377;SDS011;55322;48.146;11.516;2023-10-31T10:51:35;5.18;;;0.50;;
68377;SDS011;55322;48.146;11.516;2023-10-31T10:54:25;5.97;;;0.60;;
68377;SDS011;55322;48.146;11.516;2023-10-31T10:56:59;4.07;;;0.70;;
68377;SDS011;55322;48.146;11.516;2023-10-31T10:59:39;5.07;;;0.50;;
68377;SDS011;55322;48.146;11.516;2023-10-31T11:02:07;4.32;;;0.50;;
68377;SDS011;55322;48.146;11.516;2023-10-31T11:04:33;8.02;;;0.70;;
68377;SDS011;55322;48.146;11.516;2023-10-31T11:07:00;4.20;;;0.45;;
68377;SDS011;55322;48.146;11.516;2023-10-31T11:09:26;3.13;;;0.30;;
68377;SDS011;55322;48.146;11.516;2023-10-31T11:11:52;3.97;;;0.40;;
68377;SDS011;55322;48.146;11.516;2023-10-31T11:14:19;4.03;;;0.40;;
68377;SDS011;55322;48.146;11.516;2023-10-31T11:16:46;3.77;;;0.30;;
68377;SDS011;55322;48.146;11.516;2023-10-31T11:19:15;4.03;;;0.40;;
68377;SDS011;55322;48.146;11.516;2023-10-31T11:24:38;4.97;;;0.50;;
68377;SDS011;55322;48.146;11.516;2023-10-31T11:27:05;4.10;;;0.47;;
68377;SDS011;55322;48.146;11.516;2023-10-31T11:29:31;3.55;;;0.50;;
68377;SDS011;55322;48.146;11.516;2023-10-31T11:31:57;5.37;;;0.50;;
68377;SDS011;55322;48.146;11.516;2023-10-31T11:34:27;6.68;;;0.75;;
68377;SDS011;55322;48.146;11.516;2023-10-31T11:36:54;3.75;;;0.50;;
68377;SDS011;55322;48.146;11.516;2023-10-31T11:42:37;3.58;;;0.45;;
68377;SDS011;55322;48.146;11.516;2023-10-31T11:45:03;2.73;;;0.40;;
68377;SDS011;55322;48.146;11.516;2023-10-31T11:47:44;3.33;;;0.50;;
68377;SDS011;55322;48.146;11.516;2023-10-31T11:50:13;4.07;;;0.50;;
68377;SDS011;55322;48.146;11.516;2023-10-31T11:52:39;2.97;;;0.40;;
68377;SDS011;55322;48.146;11.516;2023-10-31T11:55:05;3.47;;;0.40;;
68377;SDS011;55322;48.146;11.516;2023-10-31T11:57:34;6.60;;;0.60;;
68377;SDS011;55322;48.146;11.516;2023-10-31T12:00:00;2.57;;;0.40;;
68377;SDS011;55322;48.146;11.516;2023-10-31T12:02:25;4.40;;;0.50;;
68377;SDS011;55322;48.146;11.516;2023-10-31T12:04:51;3.87;;;0.63;;
68377;SDS011;55322;48.146;11.516;2023-10-31T12:07:18;5.40;;;0.50;;
68377;SDS011;55322;48.146;11.516;2023-10-31T12:09:46;4.97;;;0.50;;
68377;SDS011;55322;48.146;11.516;2023-10-31T12:12:13;4.25;;;0.60;;
68377;SDS011;55322;48.146;11.516;2023-10-31T12:14:38;6.30;;;0.60;;
68377;SDS011;55322;48.146;11.516;2023-10-31T12:17:04;3.55;;;0.50;;
68377;SDS011;55322;48.146;11.516;2023-10-31T12:19:30;6.23;;;0.60;;
68377;SDS011;55322;48.146;11.516;2023-10-31T12:21:55;3.72;;;0.43;;
68377;SDS011;55322;48.146;11.516;2023-10-31T12:24:21;5.07;;;0.60;;
68377;SDS011;55322;48.146;11.516;2023-10-31T12:26:47;2.95;;;0.40;;
68377;SDS011;55322;48.146;11.516;2023-10-31T12:31:50;4.60;;;0.50;;
68377;SDS011;55322;48.146;11.516;2023-10-31T12:34:18;3.25;;;0.60;;
68377;SDS011;55322;48.146;11.516;2023-10-31T12:36:45;5.35;;;0.50;;
68377;SDS011;55322;48.146;11.516;2023-10-31T12:39:12;4.75;;;0.80;;
68377;SDS011;55322;48.146;11.516;2023-10-31T12:41:38;3.63;;;0.50;;
68377;SDS011;55322;48.146;11.516;2023-10-31T12:44:05;3.53;;;0.50;;
68377;SDS011;55322;48.146;11.516;2023-10-31T12:46:41;3.90;;;0.45;;
68377;SDS011;55322;48.146;11.516;2023-10-31T12:49:17;3.33;;;0.30;;
68377;SDS011;55322;48.146;11.516;2023-10-31T12:51:56;3.13;;;0.50;;
68377;SDS011;55322;48.146;11.516;2023-10-31T12:54:32;3.43;;;0.40;;
68377;SDS011;55322;48.146;11.516;2023-10-31T12:57:02;4.00;;;0.40;;
68377;SDS011;55322;48.146;11.516;2023-10-31T12:59:29;4.05;;;0.50;;
68377;SDS011;55322;48.146;11.516;2023-10-31T13:01:55;2.80;;;0.35;;
68377;SDS011;55322;48.146;11.516;2023-10-31T13:04:27;3.33;;;0.40;;
68377;SDS011;55322;48.146;11.516;2023-10-31T13:09:28;3.65;;;0.50;;
68377;SDS011;55322;48.146;11.516;2023-10-31T13:11:57;3.20;;;0.40;;
68377;SDS011;55322;48.146;11.516;2023-10-31T13:14:23;2.75;;;0.40;;
68377;SDS011;55322;48.146;11.516;2023-10-31T13:16:48;2.33;;;0.30;;
68377;SDS011;55322;48.146;11.516;2023-10-31T13:19:14;4.23;;;0.50;;
68377;SDS011;55322;48.146;11.516;2023-10-31T13:21:40;3.00;;;0.30;;
68377;SDS011;55322;48.146;11.516;2023-10-31T13:24:06;2.42;;;0.30;;
68377;SDS011;55322;48.146;11.516;2023-10-31T13:26:33;2.35;;;0.30;;
68377;SDS011;55322;48.146;11.516;2023-10-31T13:28:58;2.93;;;0.40;;
68377;SDS011;55322;48.146;11.516;2023-10-31T13:31:24;2.40;;;0.33;;
68377;SDS011;55322;48.146;11.516;2023-10-31T13:33:49;2.10;;;0.30;;
68377;SDS011;55322;48.146;11.516;2023-10-31T13:36:14;2.33;;;0.30;;
68377;SDS011;55322;48.146;11.516;2023-10-31T13:38:40;2.60;;;0.30;;
68377;SDS011;55322;48.146;11.516;2023-10-31T13:41:05;2.53;;;0.30;;
68377;SDS011;55322;48.146;11.516;2023-10-31T13:43:31;4.80;;;0.40;;
68377;SDS011;55322;48.146;11.516;2023-10-31T13:45:56;2.23;;;0.30;;
68377;SDS011;55322;48.146;11.516;2023-10-31T13:48:21;2.93;;;0.40;;
68377;SDS011;55322;48.146;11.516;2023-10-31T13:50:47;2.90;;;0.52;;
68377;SDS011;55322;48.146;11.516;2023-10-31T13:53:12;3.47;;;0.33;;
68377;SDS011;55322;48.146;11.516;2023-10-31T13:55:38;4.63;;;0.40;;
68377;SDS011;55322;48.146;11.516;2023-10-31T13:58:03;2.80;;;0.40;;
68377;SDS011;55322;48.146;11.516;2023-10-31T14:00:28;3.17;;;0.40;;
68377;SDS011;55322;48.146;11.516;2023-10-31T14:02:54;3.75;;;0.40;;
68377;SDS011;55322;48.146;11.516;2023-10-31T14:05:20;2.72;;;0.40;;
68377;SDS011;55322;48.146;11.516;2023-10-31T14:07:46;2.77;;;0.40;;
68377;SDS011;55322;48.146;11.516;2023-10-31T14:10:12;1.50;;;0.22;;
68377;SDS011;55322;48.146;11.516;2023-10-31T14:12:37;2.63;;;0.40;;
68377;SDS011;55322;48.146;11.516;2023-10-31T14:15:03;2.83;;;0.40;;
68377;SDS011;55322;48.146;11.516;2023-10-31T14:17:28;2.22;;;0.30;;
68377;SDS011;55322;48.146;11.516;2023-10-31T14:19:54;2.93;;;0.40;;